Time;durP1;ratioP1;P1;durP2;ratioP2;P2;SDS_P1;SDS_P2;PMS_P1;PMS_P2;Temp;Humidity;BMP_temperature;BMP_pressure;BME280_temperature;BME280_humidity;BME280_pressure;Samples;Min_cycle;Max_cycle;Signal;HPM_P1;HPM_P2
2022/12/25 00:01:03;;;;;;;2.83;2.55;;;;;;;;;;5093530;28;20311;-85
2022/12/25 00:03:31;;;;;;;2.30;2.10;;;;;;;;;;5093907;28;20212;-85
2022/12/25 00:05:59;;;;;;;2.85;2.55;;;;;;;;;;5085855;28;20209;-83
2022/12/25 00:08:28;;;;;;;2.13;2.00;;;;;;;;;;5073627;28;20284;-83
2022/12/25 00:11:00;;;;;;;2.45;1.80;;;;;;;;;;5084165;28;20307;-85
2022/12/25 00:13:28;;;;;;;2.38;2.17;;;;;;;;;;5093769;28;20287;-84
2022/12/25 00:15:56;;;;;;;2.38;2.17;;;;;;;;;;5093776;28;20560;-84
2022/12/25 00:18:23;;;;;;;3.85;3.03;;;;;;;;;;5093991;28;20586;-83
2022/12/25 00:20:58;;;;;;;3.10;2.80;;;;;;;;;;5093859;28;20315;-85
2022/12/25 00:23:27;;;;;;;3.90;3.60;;;;;;;;;;5093682;28;20202;-85
2022/12/25 00:25:55;;;;;;;5.75;3.70;;;;;;;;;;5073753;28;20201;-84
2022/12/25 00:28:23;;;;;;;4.38;3.95;;;;;;;;;;5082689;28;20202;-84
2022/12/25 00:30:51;;;;;;;7.35;4.97;;;;;;;;;;5093534;28;20743;-85
2022/12/25 00:33:19;;;;;;;5.63;4.07;;;;;;;;;;5092836;28;20192;-85
2022/12/25 00:35:57;;;;;;;17.75;11.73;;;;;;;;;;5093407;28;20295;-87
2022/12/25 00:38:25;;;;;;;5.65;4.65;;;;;;;;;;5093223;28;20234;-86
2022/12/25 00:40:53;;;;;;;4.95;4.45;;;;;;;;;;5091923;28;20307;-87
2022/12/25 00:43:21;;;;;;;11.25;5.88;;;;;;;;;;5089333;28;20338;-86
2022/12/25 00:45:59;;;;;;;4.57;4.10;;;;;;;;;;5073038;28;20261;-84
2022/12/25 00:48:28;;;;;;;4.20;3.63;;;;;;;;;;5073061;28;20270;-85
2022/12/25 00:50:57;;;;;;;5.35;4.75;;;;;;;;;;5072817;28;20720;-85
2022/12/25 00:53:25;;;;;;;5.57;4.60;;;;;;;;;;5072339;28;20680;-86
2022/12/25 00:55:56;;;;;;;4.20;3.20;;;;;;;;;;5075317;28;20201;-86
2022/12/25 00:58:26;;;;;;;4.20;3.80;;;;;;;;;;5093453;28;20184;-87
2022/12/25 01:00:53;;;;;;;3.75;3.45;;;;;;;;;;5093348;28;20216;-86
2022/12/25 01:03:21;;;;;;;2.45;2.25;;;;;;;;;;5093321;28;20201;-86
2022/12/25 01:05:56;;;;;;;3.10;2.80;;;;;;;;;;5088776;28;20204;-85
2022/12/25 01:08:24;;;;;;;3.38;2.70;;;;;;;;;;5080121;28;20190;-86
2022/12/25 01:10:56;;;;;;;2.67;2.47;;;;;;;;;;5092638;28;20259;-86
2022/12/25 01:13:23;;;;;;;2.33;2.03;;;;;;;;;;5096549;28;20196;-86
2022/12/25 01:15:53;;;;;;;2.17;2.00;;;;;;;;;;5079872;28;20203;-87
2022/12/25 01:18:21;;;;;;;2.00;1.90;;;;;;;;;;5076419;28;20201;-85
2022/12/25 01:20:49;;;;;;;2.60;2.28;;;;;;;;;;5076464;28;20659;-84
2022/12/25 01:23:16;;;;;;;3.22;2.92;;;;;;;;;;5076257;28;20287;-86
2022/12/25 01:25:44;;;;;;;2.97;2.30;;;;;;;;;;5076320;28;20204;-85
2022/12/25 01:28:13;;;;;;;2.20;1.92;;;;;;;;;;5076539;28;20201;-85
2022/12/25 01:30:40;;;;;;;2.08;1.88;;;;;;;;;;5076371;28;20657;-83
2022/12/25 01:33:08;;;;;;;1.95;1.83;;;;;;;;;;5075840;28;20645;-84
2022/12/25 01:35:38;;;;;;;2.80;2.33;;;;;;;;;;5075833;28;20288;-85
2022/12/25 01:38:06;;;;;;;1.65;1.55;;;;;;;;;;5076414;28;20195;-84
2022/12/25 01:40:34;;;;;;;3.05;2.58;;;;;;;;;;5075572;28;20311;-85
2022/12/25 01:43:02;;;;;;;2.67;2.47;;;;;;;;;;5086608;28;20303;-84
2022/12/25 01:45:46;;;;;;;3.58;2.33;;;;;;;;;;5075560;28;20201;-85
2022/12/25 01:48:18;;;;;;;4.85;3.13;;;;;;;;;;5056101;28;20194;-85
2022/12/25 01:50:47;;;;;;;4.55;3.58;;;;;;;;;;5055750;28;20225;-84
2022/12/25 01:53:15;;;;;;;4.72;3.03;;;;;;;;;;5056109;28;20310;-85
2022/12/25 01:55:43;;;;;;;4.78;3.47;;;;;;;;;;5059849;28;20202;-84
2022/12/25 01:58:10;;;;;;;4.07;2.97;;;;;;;;;;5091681;28;20265;-85
2022/12/25 02:00:39;;;;;;;2.55;2.13;;;;;;;;;;5075337;28;20229;-87
2022/12/25 02:03:07;;;;;;;5.53;2.20;;;;;;;;;;5075954;28;20280;-85
2022/12/25 02:05:36;;;;;;;2.55;2.35;;;;;;;;;;5075667;28;20293;-85
2022/12/25 02:08:11;;;;;;;2.90;2.25;;;;;;;;;;5075235;28;20292;-87
2022/12/25 02:10:39;;;;;;;4.57;3.70;;;;;;;;;;5094375;28;20690;-86
2022/12/25 02:13:07;;;;;;;3.17;2.83;;;;;;;;;;5091817;28;20292;-86
2022/12/25 02:15:44;;;;;;;3.13;2.47;;;;;;;;;;5074996;28;20247;-87
2022/12/25 02:18:16;;;;;;;2.47;1.80;;;;;;;;;;5075388;28;20193;-84
2022/12/25 02:21:18;;;;;;;4.55;2.60;;;;;;;;;;5075475;28;20311;-86
2022/12/25 02:24:21;;;;;;;2.00;1.80;;;;;;;;;;5064931;28;20280;-86
2022/12/25 02:27:12;;;;;;;4.97;1.50;;;;;;;;;;5075285;28;20203;-85
2022/12/25 02:29:49;;;;;;;3.25;1.80;;;;;;;;;;5075905;28;20285;-85
2022/12/25 02:32:23;;;;;;;3.88;2.38;;;;;;;;;;5087831;28;20200;-85
2022/12/25 02:34:55;;;;;;;1.63;1.40;;;;;;;;;;5088931;28;20378;-86
2022/12/25 02:37:30;;;;;;;1.75;1.30;;;;;;;;;;5075727;28;20272;-86
2022/12/25 02:40:02;;;;;;;6.70;2.38;;;;;;;;;;5075661;28;20597;-84
2022/12/25 03:07:52;;;;;;;5.45;3.28;;;;;;;;;;5094250;28;20319;-90
2022/12/25 03:13:10;;;;;;;3.80;2.55;;;;;;;;;;5075261;28;20192;-89
2022/12/25 03:18:27;;;;;;;3.78;3.38;;;;;;;;;;5073493;28;20180;-89
2022/12/25 03:31:10;;;;;;;5.22;2.90;;;;;;;;;;5073316;28;20185;-88
2022/12/25 03:32:13;;;;;;;8.68;3.28;;;;;;;;;;5072746;28;20212;-87
2022/12/25 04:36:09;;;;;;;1.80;1.70;;;;;;;;;;5072724;28;20204;-89
2022/12/25 04:38:37;;;;;;;1.77;1.67;;;;;;;;;;5071888;28;21188;-88
2022/12/25 04:41:07;;;;;;;2.10;2.00;;;;;;;;;;5084004;28;20723;-89
2022/12/25 04:43:34;;;;;;;2.25;2.05;;;;;;;;;;5075426;28;20198;-89
2022/12/25 04:46:03;;;;;;;2.15;1.73;;;;;;;;;;5052445;28;20194;-89
2022/12/25 04:48:35;;;;;;;1.90;1.77;;;;;;;;;;5057572;28;20722;-89
2022/12/25 04:51:14;;;;;;;1.95;1.85;;;;;;;;;;5076257;28;20231;-90
2022/12/25 04:53:42;;;;;;;3.50;2.70;;;;;;;;;;5076010;28;20201;-89
2022/12/25 04:56:11;;;;;;;2.28;1.85;;;;;;;;;;5076758;28;20203;-89
2022/12/25 04:58:39;;;;;;;3.53;2.55;;;;;;;;;;5089285;28;20291;-89
2022/12/25 05:01:07;;;;;;;2.47;2.00;;;;;;;;;;5083221;28;20256;-89
2022/12/25 05:03:34;;;;;;;2.63;2.42;;;;;;;;;;5075884;28;20212;-89
2022/12/25 05:06:03;;;;;;;2.60;2.38;;;;;;;;;;5056219;28;20202;-89
2022/12/25 05:08:31;;;;;;;2.28;2.10;;;;;;;;;;5061117;28;20563;-89
2022/12/25 05:10:59;;;;;;;2.33;1.85;;;;;;;;;;5075992;28;20588;-89
2022/12/25 05:13:28;;;;;;;3.08;2.40;;;;;;;;;;5080709;28;20289;-89
2022/12/25 05:15:55;;;;;;;1.90;1.80;;;;;;;;;;5075797;28;20318;-89
2022/12/25 05:18:23;;;;;;;2.58;2.38;;;;;;;;;;5089307;28;20227;-89
2022/12/25 05:20:54;;;;;;;4.38;3.08;;;;;;;;;;5095815;28;20264;-89
2022/12/25 05:23:22;;;;;;;3.63;3.00;;;;;;;;;;5095917;28;20200;-89
2022/12/25 05:25:49;;;;;;;2.63;2.42;;;;;;;;;;5096045;28;20287;-88
2022/12/25 05:28:17;;;;;;;6.50;3.70;;;;;;;;;;5089201;28;20292;-89
2022/12/25 05:30:46;;;;;;;3.45;3.15;;;;;;;;;;5087521;28;20692;-89
2022/12/25 05:33:13;;;;;;;4.72;2.75;;;;;;;;;;5093539;28;20250;-88
2022/12/25 05:35:41;;;;;;;2.33;2.10;;;;;;;;;;5075757;28;20284;-89
2022/12/25 05:38:09;;;;;;;2.78;2.10;;;;;;;;;;5059753;28;20710;-90
2022/12/25 05:40:40;;;;;;;2.95;2.67;;;;;;;;;;5076241;28;20211;-88
2022/12/25 05:43:08;;;;;;;4.68;2.65;;;;;;;;;;5075736;28;20208;-89
2022/12/25 05:45:36;;;;;;;3.83;2.22;;;;;;;;;;5084497;28;20193;-89
2022/12/25 05:48:05;;;;;;;4.32;2.20;;;;;;;;;;5078391;28;20284;-89
2022/12/25 05:50:32;;;;;;;3.35;3.05;;;;;;;;;;5074507;28;20946;-89
2022/12/25 05:53:00;;;;;;;3.15;2.65;;;;;;;;;;5076266;28;20275;-89
2022/12/25 05:55:27;;;;;;;5.63;3.35;;;;;;;;;;5075585;28;20645;-88
2022/12/25 05:57:55;;;;;;;6.75;4.10;;;;;;;;;;5090634;28;20228;-88
2022/12/25 06:00:22;;;;;;;4.30;3.42;;;;;;;;;;5094078;28;20644;-89
2022/12/25 06:02:50;;;;;;;6.65;4.03;;;;;;;;;;5095642;28;20243;-89
2022/12/25 06:05:19;;;;;;;2.45;2.25;;;;;;;;;;5096108;28;20239;-89
2022/12/25 06:07:46;;;;;;;3.42;2.90;;;;;;;;;;5081768;28;20280;-89
2022/12/25 06:10:14;;;;;;;6.47;3.65;;;;;;;;;;5075408;28;20311;-88
2022/12/25 06:12:42;;;;;;;5.20;3.50;;;;;;;;;;5075598;28;20193;-88
2022/12/25 06:15:10;;;;;;;6.03;3.00;;;;;;;;;;5075455;28;20224;-89
2022/12/25 06:17:38;;;;;;;2.72;2.47;;;;;;;;;;5067637;28;20202;-88
2022/12/25 06:20:07;;;;;;;4.38;2.50;;;;;;;;;;5090283;28;20669;-89
2022/12/25 06:22:36;;;;;;;5.20;2.83;;;;;;;;;;5095717;28;20264;-89
2022/12/25 06:25:04;;;;;;;3.67;2.38;;;;;;;;;;5096557;28;20227;-89
2022/12/25 06:27:31;;;;;;;2.28;1.90;;;;;;;;;;5087319;28;20284;-88
2022/12/25 06:29:59;;;;;;;2.50;2.25;;;;;;;;;;5076917;28;20282;-88
2022/12/25 06:32:26;;;;;;;1.92;1.80;;;;;;;;;;5076142;28;20228;-89
2022/12/25 06:34:54;;;;;;;2.85;1.88;;;;;;;;;;5075784;28;20297;-88
2022/12/25 06:37:21;;;;;;;2.58;1.80;;;;;;;;;;5069353;28;20276;-89
2022/12/25 06:39:54;;;;;;;1.40;1.30;;;;;;;;;;5074568;28;20300;-88
2022/12/25 06:42:22;;;;;;;1.60;1.30;;;;;;;;;;5079572;28;20784;-89
2022/12/25 06:44:49;;;;;;;1.55;1.45;;;;;;;;;;5088757;28;20257;-88
2022/12/25 06:47:17;;;;;;;1.73;1.63;;;;;;;;;;5087590;28;20283;-88
2022/12/25 06:49:44;;;;;;;2.20;1.63;;;;;;;;;;5095134;28;20264;-89
2022/12/25 06:52:14;;;;;;;3.17;2.08;;;;;;;;;;5055054;28;20186;-89
2022/12/25 06:54:42;;;;;;;2.03;1.70;;;;;;;;;;5071159;28;20231;-89
2022/12/25 06:57:11;;;;;;;2.55;2.30;;;;;;;;;;5075133;28;20236;-88
2022/12/25 06:59:39;;;;;;;1.80;1.70;;;;;;;;;;5087976;28;20672;-88
2022/12/25 07:02:12;;;;;;;2.92;1.77;;;;;;;;;;5084020;28;20220;-89
2022/12/25 07:04:41;;;;;;;1.73;1.63;;;;;;;;;;5083010;28;20232;-88
2022/12/25 07:07:10;;;;;;;1.85;1.67;;;;;;;;;;5074673;28;20232;-89
2022/12/25 07:09:38;;;;;;;2.08;1.50;;;;;;;;;;5073558;28;20291;-89
2022/12/25 07:12:08;;;;;;;1.75;1.35;;;;;;;;;;5074990;28;20212;-89
2022/12/25 07:14:37;;;;;;;2.72;1.88;;;;;;;;;;5084550;28;20279;-88
2022/12/25 07:17:04;;;;;;;1.65;1.50;;;;;;;;;;5083037;28;20261;-88
2022/12/25 07:19:32;;;;;;;2.22;2.03;;;;;;;;;;5074202;28;20197;-88
2022/12/25 07:21:59;;;;;;;2.55;2.35;;;;;;;;;;5074691;28;20442;-88
2022/12/25 07:24:27;;;;;;;2.38;2.17;;;;;;;;;;5074097;28;20209;-88
2022/12/25 07:26:54;;;;;;;5.50;2.65;;;;;;;;;;5074374;28;20275;-89
2022/12/25 07:29:22;;;;;;;4.72;3.08;;;;;;;;;;5088165;28;20279;-88
2022/12/25 07:31:50;;;;;;;3.67;3.38;;;;;;;;;;5092850;28;20764;-89
2022/12/25 07:34:19;;;;;;;3.45;3.08;;;;;;;;;;5079526;28;20216;-89
2022/12/25 07:36:46;;;;;;;3.03;2.45;;;;;;;;;;5075903;28;20279;-88
2022/12/25 07:39:15;;;;;;;3.17;2.47;;;;;;;;;;5074504;28;20629;-89
2022/12/25 07:41:42;;;;;;;2.55;2.35;;;;;;;;;;5073934;28;20346;-89
2022/12/25 07:44:10;;;;;;;2.55;2.35;;;;;;;;;;5073896;28;20229;-87
2022/12/25 07:46:37;;;;;;;3.55;3.15;;;;;;;;;;5088212;28;20307;-89
2022/12/25 07:49:06;;;;;;;4.18;3.13;;;;;;;;;;5092058;28;20283;-88
2022/12/25 07:51:33;;;;;;;5.20;2.78;;;;;;;;;;5077426;28;20753;-88
2022/12/25 07:54:01;;;;;;;3.47;2.60;;;;;;;;;;5075391;28;20235;-88
2022/12/25 07:56:28;;;;;;;5.45;3.22;;;;;;;;;;5073982;28;20240;-89
2022/12/25 07:58:56;;;;;;;4.60;4.03;;;;;;;;;;5077093;28;20235;-88
2022/12/25 08:01:25;;;;;;;3.10;2.83;;;;;;;;;;5085633;28;20291;-88
2022/12/25 08:03:54;;;;;;;3.80;3.10;;;;;;;;;;5090741;28;20272;-89
2022/12/25 08:06:29;;;;;;;4.70;3.50;;;;;;;;;;5073420;28;20284;-89
2022/12/25 08:08:57;;;;;;;5.00;3.70;;;;;;;;;;5072917;28;20223;-88
2022/12/25 08:11:24;;;;;;;3.13;2.45;;;;;;;;;;5072602;28;20223;-88
2022/12/25 08:13:52;;;;;;;3.38;3.08;;;;;;;;;;5078847;28;20228;-88
2022/12/25 08:16:19;;;;;;;4.32;2.80;;;;;;;;;;5078520;28;20279;-89
2022/12/25 08:18:47;;;;;;;3.13;2.85;;;;;;;;;;5074981;28;20288;-88
2022/12/25 08:21:32;;;;;;;3.53;3.33;;;;;;;;;;5074313;28;20777;-88
2022/12/25 08:24:01;;;;;;;4.78;3.17;;;;;;;;;;5076596;28;20661;-89
2022/12/25 08:26:29;;;;;;;8.63;4.00;;;;;;;;;;5077227;28;20200;-87
2022/12/25 08:28:57;;;;;;;3.72;3.15;;;;;;;;;;5065804;28;20685;-88
2022/12/25 08:31:28;;;;;;;3.33;3.03;;;;;;;;;;5077927;28;20230;-87
2022/12/25 08:33:58;;;;;;;3.25;2.67;;;;;;;;;;5097457;28;20271;-89
2022/12/25 08:36:26;;;;;;;2.60;2.20;;;;;;;;;;5097988;28;20583;-89
2022/12/25 08:38:55;;;;;;;3.40;2.80;;;;;;;;;;5096957;28;20204;-89
2022/12/25 08:41:23;;;;;;;3.65;2.67;;;;;;;;;;5076876;28;20300;-88
2022/12/25 08:43:50;;;;;;;4.22;3.20;;;;;;;;;;5076373;28;20263;-88
2022/12/25 08:46:18;;;;;;;2.47;2.28;;;;;;;;;;5076735;28;20189;-88
2022/12/25 08:48:49;;;;;;;2.60;2.40;;;;;;;;;;5085790;28;20203;-87
2022/12/25 08:51:19;;;;;;;3.88;2.70;;;;;;;;;;5096952;28;20310;-86
2022/12/25 08:53:49;;;;;;;2.75;2.55;;;;;;;;;;5089647;28;20287;-85
2022/12/25 08:56:19;;;;;;;2.83;2.60;;;;;;;;;;5076571;28;20619;-85
2022/12/25 08:58:47;;;;;;;2.30;2.10;;;;;;;;;;5073259;28;20197;-86
2022/12/25 09:01:14;;;;;;;3.08;2.40;;;;;;;;;;5087166;28;20248;-86
2022/12/25 09:03:42;;;;;;;2.92;2.20;;;;;;;;;;5092975;28;20242;-85
2022/12/25 09:06:12;;;;;;;3.15;2.47;;;;;;;;;;5076506;28;20205;-85
2022/12/25 09:08:41;;;;;;;2.20;2.00;;;;;;;;;;5076147;28;20200;-87
2022/12/25 09:11:10;;;;;;;3.40;2.13;;;;;;;;;;5075801;28;20403;-87
2022/12/25 09:13:40;;;;;;;3.00;2.70;;;;;;;;;;5076380;28;20585;-85
2022/12/25 09:16:08;;;;;;;3.85;2.40;;;;;;;;;;5076481;28;20229;-86
2022/12/25 09:18:36;;;;;;;2.28;1.90;;;;;;;;;;5076318;28;20644;-85
2022/12/25 09:21:06;;;;;;;3.28;2.47;;;;;;;;;;5083975;28;20300;-86
2022/12/25 09:23:34;;;;;;;2.30;1.80;;;;;;;;;;5087935;28;20235;-86
2022/12/25 09:26:02;;;;;;;1.80;1.67;;;;;;;;;;5076154;28;20291;-86
2022/12/25 09:28:30;;;;;;;2.20;2.10;;;;;;;;;;5075193;28;20201;-84
2022/12/25 09:31:00;;;;;;;3.53;2.30;;;;;;;;;;5056503;28;20603;-85
2022/12/25 09:33:28;;;;;;;2.17;2.08;;;;;;;;;;5092572;28;20284;-86
2022/12/25 09:35:56;;;;;;;5.07;1.77;;;;;;;;;;5096065;28;20317;-86
2022/12/25 09:38:24;;;;;;;2.20;1.90;;;;;;;;;;5088518;28;20258;-84
2022/12/25 09:40:59;;;;;;;3.28;2.53;;;;;;;;;;5055991;28;20221;-84
2022/12/25 09:43:28;;;;;;;3.53;3.03;;;;;;;;;;5068994;28;20207;-85
2022/12/25 09:45:56;;;;;;;6.57;3.10;;;;;;;;;;5072588;28;20623;-85
2022/12/25 09:48:25;;;;;;;3.55;2.90;;;;;;;;;;5095991;28;20196;-85
2022/12/25 09:50:57;;;;;;;2.88;2.45;;;;;;;;;;5081046;28;20220;-84
2022/12/25 09:53:27;;;;;;;3.80;2.83;;;;;;;;;;5075752;28;20177;-84
2022/12/25 09:56:01;;;;;;;3.35;2.60;;;;;;;;;;5076193;28;20216;-85
2022/12/25 09:58:30;;;;;;;4.88;2.65;;;;;;;;;;5072383;28;20291;-84
2022/12/25 10:01:08;;;;;;;4.63;3.00;;;;;;;;;;5055414;28;20657;-85
2022/12/25 10:04:01;;;;;;;3.63;2.92;;;;;;;;;;5055496;28;20244;-85
2022/12/25 10:06:37;;;;;;;3.22;2.90;;;;;;;;;;5071359;28;20572;-85
2022/12/25 10:09:35;;;;;;;3.47;2.70;;;;;;;;;;5075097;28;20197;-85
2022/12/25 10:12:25;;;;;;;4.65;3.20;;;;;;;;;;5075387;28;20239;-85
2022/12/25 10:15:06;;;;;;;3.92;2.70;;;;;;;;;;5082882;28;20189;-84
2022/12/25 10:17:45;;;;;;;3.35;3.05;;;;;;;;;;5091776;28;20298;-84
2022/12/25 10:20:21;;;;;;;3.20;2.90;;;;;;;;;;5079975;28;20303;-84
2022/12/25 10:22:53;;;;;;;3.95;3.15;;;;;;;;;;5087261;28;20548;-84
2022/12/25 10:25:23;;;;;;;4.10;2.80;;;;;;;;;;5075735;28;20209;-86
2022/12/25 10:27:52;;;;;;;3.92;3.15;;;;;;;;;;5075528;28;20572;-85
2022/12/25 10:30:23;;;;;;;4.32;3.25;;;;;;;;;;5073976;28;20212;-85
2022/12/25 10:32:51;;;;;;;4.90;3.55;;;;;;;;;;5079168;28;20280;-85
2022/12/25 10:35:23;;;;;;;3.38;2.70;;;;;;;;;;5096258;28;20540;-86
2022/12/25 10:37:57;;;;;;;3.42;2.92;;;;;;;;;;5094517;28;20193;-86
2022/12/25 10:40:34;;;;;;;5.60;2.92;;;;;;;;;;5079790;28;20215;-84
2022/12/25 10:43:08;;;;;;;2.67;2.45;;;;;;;;;;5076740;28;20196;-83
2022/12/25 10:45:45;;;;;;;3.00;2.35;;;;;;;;;;5090620;28;20200;-86
2022/12/25 10:48:21;;;;;;;2.63;2.42;;;;;;;;;;5091955;28;20194;-86
2022/12/25 10:50:50;;;;;;;2.33;2.13;;;;;;;;;;5094746;28;20577;-84
2022/12/25 10:53:23;;;;;;;3.65;2.63;;;;;;;;;;5083147;28;20227;-85
2022/12/25 10:55:59;;;;;;;2.55;2.20;;;;;;;;;;5083180;28;20197;-85
2022/12/25 10:58:27;;;;;;;4.72;2.65;;;;;;;;;;5087724;28;20196;-84
2022/12/25 11:00:57;;;;;;;5.75;3.08;;;;;;;;;;5088910;28;20307;-85
2022/12/25 11:03:28;;;;;;;3.67;2.42;;;;;;;;;;5075419;28;20296;-84
2022/12/25 11:06:04;;;;;;;4.45;2.90;;;;;;;;;;5149889;27;20649;-86
2022/12/25 11:08:33;;;;;;;4.82;2.35;;;;;;;;;;5146822;27;20285;-86
2022/12/25 11:11:04;;;;;;;3.75;3.33;;;;;;;;;;5118972;28;20247;-85
2022/12/25 11:13:35;;;;;;;4.25;3.15;;;;;;;;;;5118393;28;20581;-85
2022/12/25 11:16:09;;;;;;;3.40;3.05;;;;;;;;;;5133686;28;20285;-86
2022/12/25 11:18:47;;;;;;;3.83;2.70;;;;;;;;;;5125231;28;20191;-86
2022/12/25 11:21:22;;;;;;;3.70;2.55;;;;;;;;;;5125220;28;20303;-85
2022/12/25 11:23:55;;;;;;;2.58;2.38;;;;;;;;;;5132066;28;20270;-85
2022/12/25 11:26:22;;;;;;;2.90;2.47;;;;;;;;;;5132850;27;20198;-86
2022/12/25 11:28:52;;;;;;;1.95;1.75;;;;;;;;;;5132138;27;20222;-85
2022/12/25 11:31:23;;;;;;;4.18;3.00;;;;;;;;;;5123447;27;20221;-86
2022/12/25 11:33:55;;;;;;;4.40;3.75;;;;;;;;;;5113514;28;20288;-86
2022/12/25 11:36:31;;;;;;;2.88;2.67;;;;;;;;;;5111164;28;20188;-85
2022/12/25 11:39:01;;;;;;;2.63;2.42;;;;;;;;;;5119770;28;20275;-85
2022/12/25 11:41:33;;;;;;;3.00;2.72;;;;;;;;;;5123597;27;20233;-85
2022/12/25 11:44:03;;;;;;;3.40;3.10;;;;;;;;;;5120215;28;20290;-85
2022/12/25 11:46:40;;;;;;;2.67;2.47;;;;;;;;;;5130927;28;20206;-84
2022/12/25 11:49:10;;;;;;;3.78;3.30;;;;;;;;;;5110856;28;20184;-85
2022/12/25 11:51:41;;;;;;;3.63;3.30;;;;;;;;;;5126014;28;20219;-84
2022/12/25 11:54:19;;;;;;;3.20;3.00;;;;;;;;;;5128049;28;20618;-85
2022/12/25 11:56:47;;;;;;;2.25;2.15;;;;;;;;;;5131141;27;20211;-83
2022/12/25 11:59:22;;;;;;;2.90;2.70;;;;;;;;;;5130078;27;20695;-84
2022/12/25 12:01:55;;;;;;;3.05;2.78;;;;;;;;;;5120806;27;20695;-85
2022/12/25 12:04:27;;;;;;;2.25;2.03;;;;;;;;;;5120546;28;20290;-84
2022/12/25 12:07:00;;;;;;;2.40;2.20;;;;;;;;;;5109946;28;20188;-85
2022/12/25 12:09:37;;;;;;;2.92;2.67;;;;;;;;;;5111787;28;20259;-84
2022/12/25 12:12:11;;;;;;;2.42;2.22;;;;;;;;;;5116201;28;20199;-84
2022/12/25 12:14:49;;;;;;;2.65;1.85;;;;;;;;;;5129113;28;20821;-84
2022/12/25 12:17:18;;;;;;;2.05;1.90;;;;;;;;;;5104984;28;20185;-85
2022/12/25 12:19:46;;;;;;;5.47;2.50;;;;;;;;;;5098005;28;20210;-85
2022/12/25 12:22:23;;;;;;;2.42;2.22;;;;;;;;;;5116123;28;20290;-85
2022/12/25 12:24:56;;;;;;;2.60;2.40;;;;;;;;;;5116375;28;20802;-85
2022/12/25 12:27:28;;;;;;;2.15;1.90;;;;;;;;;;5115857;28;20278;-85
2022/12/25 12:29:57;;;;;;;2.35;2.15;;;;;;;;;;5116043;28;20219;-85
2022/12/25 12:32:37;;;;;;;2.88;2.40;;;;;;;;;;5116039;28;20235;-84
2022/12/25 12:35:17;;;;;;;2.72;2.53;;;;;;;;;;5095852;28;20212;-86
2022/12/25 12:37:49;;;;;;;2.92;2.70;;;;;;;;;;5112709;28;20198;-85
2022/12/25 12:40:36;;;;;;;2.90;2.70;;;;;;;;;;5115961;28;20222;-87
2022/12/25 12:43:04;;;;;;;2.90;2.70;;;;;;;;;;5104371;28;20184;-85
2022/12/25 12:45:35;;;;;;;2.83;2.63;;;;;;;;;;5106940;28;20215;-85
2022/12/25 12:48:13;;;;;;;2.55;2.35;;;;;;;;;;5107791;28;20279;-85
2022/12/25 12:50:42;;;;;;;3.20;2.72;;;;;;;;;;5115568;28;20306;-85
2022/12/25 12:53:30;;;;;;;2.90;2.58;;;;;;;;;;5110997;28;20201;-85
2022/12/25 12:56:08;;;;;;;2.78;2.55;;;;;;;;;;5115077;28;20196;-84
2022/12/25 12:58:38;;;;;;;2.80;2.38;;;;;;;;;;5115462;28;20216;-85
2022/12/25 13:01:19;;;;;;;2.90;2.67;;;;;;;;;;5108562;28;20207;-85
2022/12/25 13:04:19;;;;;;;3.35;3.05;;;;;;;;;;5107414;28;20199;-86
2022/12/25 13:06:54;;;;;;;2.50;2.40;;;;;;;;;;5113159;28;20224;-85
2022/12/25 13:09:36;;;;;;;3.13;2.28;;;;;;;;;;5116495;28;20196;-84
2022/12/25 13:12:06;;;;;;;3.15;2.85;;;;;;;;;;5117119;28;20196;-86
2022/12/25 13:14:36;;;;;;;6.53;2.95;;;;;;;;;;5103539;28;20197;-84
2022/12/25 13:17:07;;;;;;;2.42;2.22;;;;;;;;;;5112260;28;20227;-86
2022/12/25 13:19:35;;;;;;;3.08;2.30;;;;;;;;;;5104839;28;20183;-86
2022/12/25 13:22:05;;;;;;;3.33;3.03;;;;;;;;;;5108312;28;20283;-86
2022/12/25 13:24:36;;;;;;;2.10;2.00;;;;;;;;;;5097533;28;20291;-86
2022/12/25 13:27:22;;;;;;;2.63;2.35;;;;;;;;;;5112847;28;20306;-85
2022/12/25 13:29:49;;;;;;;1.88;1.77;;;;;;;;;;5112091;28;20215;-86
2022/12/25 13:32:22;;;;;;;2.55;2.35;;;;;;;;;;5115589;28;20234;-87
2022/12/25 13:34:50;;;;;;;1.90;1.80;;;;;;;;;;5112626;28;20191;-86
2022/12/25 13:37:21;;;;;;;2.05;1.92;;;;;;;;;;5116304;28;20207;-85
2022/12/25 13:39:53;;;;;;;2.63;1.90;;;;;;;;;;5106111;28;20319;-85
2022/12/25 13:42:23;;;;;;;1.70;1.60;;;;;;;;;;5100185;28;20804;-85
2022/12/25 13:44:54;;;;;;;1.95;1.80;;;;;;;;;;5113264;28;20226;-86
2022/12/25 13:47:26;;;;;;;2.78;1.80;;;;;;;;;;5096261;28;20204;-85
2022/12/25 13:49:57;;;;;;;2.22;2.13;;;;;;;;;;5104299;28;20224;-84
2022/12/25 13:52:33;;;;;;;1.77;1.67;;;;;;;;;;5116479;28;20622;-86
2022/12/25 13:55:03;;;;;;;1.88;1.77;;;;;;;;;;5116501;28;20180;-86
2022/12/25 13:57:37;;;;;;;1.83;1.73;;;;;;;;;;5116732;28;20192;-85
2022/12/25 14:00:07;;;;;;;1.98;1.80;;;;;;;;;;5115839;28;20307;-86
2022/12/25 14:02:37;;;;;;;1.85;1.75;;;;;;;;;;5096142;28;20263;-84
2022/12/25 14:05:20;;;;;;;4.63;1.60;;;;;;;;;;5096075;28;20239;-85
2022/12/25 14:07:52;;;;;;;2.22;1.73;;;;;;;;;;5105462;28;20201;-84
2022/12/25 14:10:21;;;;;;;1.73;1.63;;;;;;;;;;5115295;28;20227;-84
2022/12/25 14:12:50;;;;;;;2.08;1.98;;;;;;;;;;5115924;28;20231;-86
2022/12/25 14:15:21;;;;;;;1.73;1.63;;;;;;;;;;5115504;28;20203;-84
2022/12/25 14:17:49;;;;;;;2.58;1.92;;;;;;;;;;5095431;28;20279;-85
2022/12/25 14:20:25;;;;;;;3.72;2.47;;;;;;;;;;5094939;28;20220;-85
2022/12/25 14:22:55;;;;;;;2.08;1.98;;;;;;;;;;5095087;28;20184;-85
2022/12/25 14:25:29;;;;;;;1.98;1.70;;;;;;;;;;5095000;28;20181;-85
2022/12/25 14:27:57;;;;;;;2.67;2.00;;;;;;;;;;5094763;28;20645;-85
2022/12/25 14:30:25;;;;;;;1.77;1.67;;;;;;;;;;5095170;28;20238;-85
2022/12/25 14:32:56;;;;;;;2.80;2.50;;;;;;;;;;5114072;28;20228;-83
2022/12/25 14:35:24;;;;;;;3.03;2.38;;;;;;;;;;5115212;28;20195;-86
2022/12/25 14:37:56;;;;;;;2.72;2.00;;;;;;;;;;5115099;28;20200;-84
2022/12/25 14:40:30;;;;;;;2.17;1.92;;;;;;;;;;5115195;28;20219;-84
2022/12/25 14:42:59;;;;;;;2.45;2.00;;;;;;;;;;5115648;28;20183;-84
2022/12/25 14:45:32;;;;;;;2.25;2.13;;;;;;;;;;5115375;28;20294;-84
2022/12/25 14:48:02;;;;;;;2.35;2.00;;;;;;;;;;5114389;28;20216;-84
2022/12/25 14:50:34;;;;;;;2.63;2.22;;;;;;;;;;5115784;28;20260;-85
2022/12/25 14:53:01;;;;;;;2.75;2.55;;;;;;;;;;5102837;22;20305;-84
2022/12/25 14:55:31;;;;;;;2.58;1.92;;;;;;;;;;5072090;28;20240;-84
2022/12/25 14:58:03;;;;;;;2.45;2.25;;;;;;;;;;5063417;28;20283;-84
2022/12/25 15:00:34;;;;;;;2.20;2.00;;;;;;;;;;5072618;28;20200;-84
2022/12/25 15:03:02;;;;;;;1.90;1.75;;;;;;;;;;5068548;28;20590;-84
2022/12/25 15:05:33;;;;;;;2.60;1.92;;;;;;;;;;5062983;28;20284;-84
2022/12/25 15:08:21;;;;;;;2.40;2.20;;;;;;;;;;5063646;28;20573;-83
2022/12/25 15:10:50;;;;;;;2.67;1.80;;;;;;;;;;5053008;28;20750;-84
2022/12/25 15:13:18;;;;;;;2.10;1.88;;;;;;;;;;5055696;28;20299;-84
2022/12/25 15:15:57;;;;;;;1.77;1.67;;;;;;;;;;5072184;28;20196;-84
2022/12/25 15:18:27;;;;;;;2.08;1.98;;;;;;;;;;5072042;28;20196;-84
2022/12/25 15:20:55;;;;;;;2.28;2.15;;;;;;;;;;5072427;28;20286;-84
2022/12/25 15:23:24;;;;;;;1.70;1.60;;;;;;;;;;5072287;28;20231;-84
2022/12/25 15:25:53;;;;;;;2.22;1.80;;;;;;;;;;5072096;28;20201;-84
2022/12/25 15:28:20;;;;;;;2.05;1.67;;;;;;;;;;5071598;28;20316;-84
2022/12/25 15:30:49;;;;;;;1.23;1.23;;;;;;;;;;5072462;28;20211;-83
2022/12/25 15:33:18;;;;;;;1.30;1.20;;;;;;;;;;5071893;28;20224;-83
2022/12/25 15:35:45;;;;;;;1.85;1.75;;;;;;;;;;5072809;28;20204;-83
2022/12/25 15:38:13;;;;;;;1.95;1.85;;;;;;;;;;5072286;28;20201;-83
2022/12/25 15:40:42;;;;;;;1.83;1.73;;;;;;;;;;5073239;28;20669;-83
2022/12/25 15:43:14;;;;;;;2.65;1.83;;;;;;;;;;5072370;28;20304;-83
2022/12/25 15:45:41;;;;;;;2.03;1.92;;;;;;;;;;5073007;28;20205;-84
2022/12/25 15:48:09;;;;;;;2.03;1.70;;;;;;;;;;5072327;28;20225;-83
2022/12/25 15:50:38;;;;;;;2.92;1.90;;;;;;;;;;5064053;28;20201;-83
2022/12/25 15:53:05;;;;;;;2.05;1.83;;;;;;;;;;5071457;28;20311;-83
2022/12/25 15:55:33;;;;;;;3.30;2.13;;;;;;;;;;5076476;28;20251;-83
2022/12/25 15:58:03;;;;;;;1.70;1.60;;;;;;;;;;5076187;28;20203;-83
2022/12/25 16:00:33;;;;;;;1.67;1.58;;;;;;;;;;5076621;28;20228;-83
2022/12/25 16:03:00;;;;;;;1.63;1.50;;;;;;;;;;5075803;28;20718;-83
2022/12/25 16:05:27;;;;;;;2.45;1.58;;;;;;;;;;5076594;28;20208;-84
2022/12/25 16:07:55;;;;;;;1.58;1.48;;;;;;;;;;5075983;28;20312;-83
2022/12/25 16:10:22;;;;;;;2.30;2.10;;;;;;;;;;5076616;28;20649;-82
2022/12/25 16:12:50;;;;;;;1.88;1.77;;;;;;;;;;5076113;28;20217;-84
2022/12/25 16:15:17;;;;;;;2.40;2.20;;;;;;;;;;5076128;28;20232;-84
2022/12/25 16:17:46;;;;;;;2.10;1.85;;;;;;;;;;5075369;28;20281;-85
2022/12/25 16:20:14;;;;;;;2.28;2.08;;;;;;;;;;5075359;28;20247;-84
2022/12/25 16:22:42;;;;;;;2.28;1.40;;;;;;;;;;5075331;28;20228;-85
2022/12/25 16:25:15;;;;;;;2.10;1.90;;;;;;;;;;5075397;28;20284;-85
2022/12/25 16:27:43;;;;;;;5.15;1.70;;;;;;;;;;5075176;28;20227;-83
2022/12/25 16:30:12;;;;;;;1.88;1.73;;;;;;;;;;5074291;28;20799;-84
2022/12/25 16:32:41;;;;;;;2.03;1.83;;;;;;;;;;5074774;28;20308;-85
2022/12/25 16:35:11;;;;;;;2.45;1.90;;;;;;;;;;5074990;28;20212;-85
2022/12/25 16:37:39;;;;;;;1.90;1.80;;;;;;;;;;5075003;28;20765;-85
2022/12/25 16:40:09;;;;;;;3.25;2.45;;;;;;;;;;5074582;28;20204;-85
2022/12/25 16:42:40;;;;;;;2.10;1.90;;;;;;;;;;5074942;28;20573;-84
2022/12/25 16:45:09;;;;;;;1.70;1.60;;;;;;;;;;5075132;28;20189;-85